createdAt,value
2023-06-11T00:03:36.370Z,17.9
2023-06-11T00:13:38.475Z,17.6
2023-06-11T00:23:40.957Z,18.4
2023-06-11T00:33:43.332Z,17.4
2023-06-11T00:43:45.511Z,19.7
2023-06-11T00:53:47.721Z,22.8
2023-06-11T01:03:49.899Z,18.4
2023-06-11T01:13:52.298Z,19.8
2023-06-11T01:23:54.170Z,20.9
2023-06-11T01:33:56.307Z,21
2023-06-11T01:43:58.340Z,21.2
2023-06-11T01:54:00.447Z,21.5
2023-06-11T02:04:02.639Z,23.5
2023-06-11T02:14:04.630Z,22
2023-06-11T02:24:06.614Z,22.2
2023-06-11T02:34:08.656Z,25.7
2023-06-11T02:44:11.675Z,25
2023-06-11T02:54:12.557Z,23.2
2023-06-11T03:04:14.648Z,25.6
2023-06-11T03:14:16.495Z,25.3
2023-06-11T03:24:18.557Z,30.1
2023-06-11T03:34:20.236Z,31.5
2023-06-11T03:44:22.191Z,30.1
2023-06-11T03:54:24.054Z,29.3
2023-06-11T04:04:30.355Z,25.8
2023-06-11T04:14:27.868Z,28.1
2023-06-11T04:24:29.689Z,25.1
2023-06-11T04:34:31.534Z,24.3
2023-06-11T04:44:33.491Z,21.7
2023-06-11T04:54:35.408Z,25.3
2023-06-11T05:04:37.573Z,25.1
2023-06-11T05:14:39.177Z,24
2023-06-11T05:24:41.237Z,26.8
2023-06-11T05:34:43.054Z,25.3
2023-06-11T05:44:44.970Z,23.7
2023-06-11T05:54:46.757Z,22.4
2023-06-11T06:04:48.825Z,25.4
2023-06-11T06:14:51.974Z,21.3
2023-06-11T06:24:52.375Z,24.6
2023-06-11T06:34:54.241Z,26.6
2023-06-11T06:44:56.118Z,25.8
2023-06-11T06:54:58.009Z,24
2023-06-11T07:04:59.761Z,25.2
2023-06-11T07:15:01.668Z,24.7
2023-06-11T07:25:03.335Z,25.8
2023-06-11T07:35:05.189Z,27
2023-06-11T07:45:07.075Z,27.8
2023-06-11T07:55:08.672Z,24.7
2023-06-11T08:05:10.458Z,26.3
2023-06-11T08:15:12.291Z,25.3
2023-06-11T08:25:13.978Z,24.1
2023-06-11T08:35:15.525Z,23.8
2023-06-11T08:45:17.128Z,23.9
2023-06-11T08:55:18.846Z,26.7
2023-06-11T09:05:20.515Z,21.6
2023-06-11T09:15:22.331Z,25
2023-06-11T09:25:23.964Z,24.4
2023-06-11T09:35:25.880Z,25.7
2023-06-11T09:45:27.425Z,29.4
2023-06-11T09:55:29.156Z,26
2023-06-11T10:05:31.071Z,23.2
2023-06-11T10:15:32.524Z,22.6
2023-06-11T10:25:34.051Z,30.1
2023-06-11T10:35:35.828Z,28.2
2023-06-11T10:45:37.488Z,27.6
2023-06-11T10:55:39.229Z,26.1
2023-06-11T11:05:40.999Z,29.3
2023-06-11T11:15:42.809Z,26.9
2023-06-11T11:25:44.526Z,29.8
2023-06-11T11:35:46.474Z,30.3
2023-06-11T11:45:48.531Z,27.9
2023-06-11T12:05:52.147Z,29.5
2023-06-11T12:15:54.161Z,27.7
2023-06-11T12:25:56.181Z,26.6
2023-06-11T12:35:58.575Z,25
2023-06-11T12:46:01.432Z,23.7
2023-06-11T12:56:04.346Z,21.1
2023-06-11T13:06:07.591Z,21.6
2023-06-11T13:16:11.102Z,20.9
2023-06-11T13:26:14.587Z,21.1
2023-06-11T13:36:18.239Z,19.5
2023-06-11T13:46:21.860Z,18.4
2023-06-11T13:56:27.801Z,20.3
2023-06-11T14:06:30.088Z,21.3
2023-06-11T14:16:31.588Z,20.7
2023-06-11T14:26:34.431Z,20.9
2023-06-11T14:36:37.592Z,21.4
2023-06-11T14:46:40.478Z,20.2
2023-06-11T14:56:43.254Z,21.1
2023-06-11T15:06:46.221Z,21.2
2023-06-11T15:16:49.127Z,21.1
2023-06-11T15:26:52.115Z,21.4
2023-06-11T15:36:55.042Z,20.1
2023-06-11T15:46:58.082Z,21.6
2023-06-11T15:57:01.073Z,20.7
2023-06-11T16:07:04.116Z,20.7
2023-06-11T16:17:07.708Z,22.1
2023-06-11T16:27:10.259Z,21.4
2023-06-11T16:37:13.241Z,21.5
2023-06-11T16:47:16.392Z,21.6
2023-06-11T16:57:20.525Z,21.8
2023-06-11T17:07:22.477Z,21
2023-06-11T17:17:25.762Z,21
2023-06-11T17:23:54.916Z,21
2023-06-11T17:27:28.697Z,20.4
2023-06-11T17:37:31.765Z,21.5
2023-06-11T17:47:35.005Z,21
2023-06-11T17:57:38.060Z,21
2023-06-11T18:07:41.497Z,19.9
2023-06-11T18:17:45.997Z,21.8
2023-06-11T18:27:47.457Z,20.6
2023-06-11T18:37:50.594Z,20.4
2023-06-11T18:47:53.592Z,19.3
2023-06-11T18:58:00.874Z,20.1
2023-06-11T19:07:59.925Z,20.7
2023-06-11T19:18:05.130Z,19
2023-06-11T19:28:06.316Z,19.3
2023-06-11T19:38:09.491Z,16.7
2023-06-11T19:48:12.727Z,17.1
2023-06-11T19:58:15.902Z,15.7
2023-06-11T20:08:18.983Z,16.7
2023-06-11T20:18:22.103Z,15.5
2023-06-11T20:28:29.617Z,15.8
2023-06-11T20:33:12.777Z,15.8
2023-06-11T20:38:28.257Z,16.4
2023-06-11T20:48:31.509Z,15.7
2023-06-11T20:58:34.330Z,16.4
2023-06-11T21:08:37.591Z,15.5
2023-06-11T21:18:40.725Z,15.7
2023-06-11T21:28:44.770Z,15.2
2023-06-11T21:38:46.637Z,16.4
2023-06-11T21:48:49.530Z,15.7
2023-06-11T21:58:52.648Z,16.8
2023-06-11T22:08:55.428Z,16.7
2023-06-11T22:18:58.447Z,18
2023-06-11T22:29:01.055Z,18.2
2023-06-11T22:39:03.936Z,17.8
2023-06-11T22:49:06.937Z,18.5
2023-06-11T22:55:15.631Z,18.5
2023-06-11T22:59:09.525Z,18.5
2023-06-11T23:09:12.498Z,19.3
2023-06-11T23:19:15.055Z,17.8
2023-06-11T23:29:17.551Z,18.5
2023-06-11T23:39:20.461Z,18.4
2023-06-11T23:49:22.892Z,19
2023-06-11T23:59:25.411Z,20.1
